95F weather

Cleveland Municipal Airport
Cleveland, Oklahoma, United States

Public forecast

Using degrees Fahrenheit for public forecast. Weather courtesy of forecast.io.

Closest aviation weather report (METAR) to Cleveland Municipal Airport

Closest report is William R. Pogue Municipal Airport, 16.4 nm (30.4 km) ESE. Retrieved 2019/10/19 20:35 UTC (23 minutes ago):

KOWP 192035Z AUTO 33007KT 10SM CLR 24/12 A2975 RMK AO2 T02430116 PWINO

Closest aviation forecast (TAF) to Cleveland Municipal Airport

Closest forecast is Richard Lloyd Jones Jr Airport, 27.4 nm (50.8 km) ESE. Retrieved 2019/10/19 18:36 UTC (2 hours ago):

TAF KRVS 191733Z 1918/2018 22005KT P6SM SCT050 FM191900 34008KT P6SM SCT050 FM201000 VRB03KT 3SM BR SKC TEMPO 2010/2013 1SM BR SCT005 FM201400 15005KT P6SM SCT010